sensor_id;sensor_type;location;lat;lon;timestamp;P1;durP1;ratioP1;P2;durP2;ratioP2
41705;SDS011;27385;51.096;17.190;2023-10-08T00:02:17;1.30;;;0.10;;
41705;SDS011;27385;51.096;17.190;2023-10-08T00:04:50;0.10;;;0.00;;
41705;SDS011;27385;51.096;17.190;2023-10-08T00:07:22;1.10;;;0.10;;
41705;SDS011;27385;51.096;17.190;2023-10-08T00:09:53;0.60;;;0.10;;
41705;SDS011;27385;51.096;17.190;2023-10-08T00:12:23;0.70;;;0.00;;
41705;SDS011;27385;51.096;17.190;2023-10-08T00:14:56;0.80;;;0.10;;
41705;SDS011;27385;51.096;17.190;2023-10-08T00:17:28;3.70;;;0.10;;
41705;SDS011;27385;51.096;17.190;2023-10-08T00:20:00;3.50;;;0.50;;
41705;SDS011;27385;51.096;17.190;2023-10-08T00:22:32;1.40;;;0.20;;
41705;SDS011;27385;51.096;17.190;2023-10-08T00:25:04;1.10;;;0.20;;
41705;SDS011;27385;51.096;17.190;2023-10-08T00:27:39;2.30;;;0.30;;
41705;SDS011;27385;51.096;17.190;2023-10-08T00:30:11;2.50;;;0.30;;
41705;SDS011;27385;51.096;17.190;2023-10-08T00:32:45;2.40;;;0.20;;
41705;SDS011;27385;51.096;17.190;2023-10-08T00:35:16;3.70;;;0.30;;
41705;SDS011;27385;51.096;17.190;2023-10-08T00:37:48;2.00;;;0.30;;
41705;SDS011;27385;51.096;17.190;2023-10-08T00:40:19;1.60;;;0.20;;
41705;SDS011;27385;51.096;17.190;2023-10-08T00:42:51;2.70;;;0.30;;
41705;SDS011;27385;51.096;17.190;2023-10-08T00:45:24;2.50;;;0.20;;
41705;SDS011;27385;51.096;17.190;2023-10-08T00:47:58;2.00;;;0.20;;
41705;SDS011;27385;51.096;17.190;2023-10-08T00:50:29;0.70;;;0.20;;
41705;SDS011;27385;51.096;17.190;2023-10-08T00:53:10;1.50;;;0.20;;
41705;SDS011;27385;51.096;17.190;2023-10-08T00:55:49;1.30;;;0.10;;
41705;SDS011;27385;51.096;17.190;2023-10-08T00:58:28;1.70;;;0.20;;
41705;SDS011;27385;51.096;17.190;2023-10-08T01:01:01;1.50;;;0.10;;
41705;SDS011;27385;51.096;17.190;2023-10-08T01:03:38;1.50;;;0.20;;
41705;SDS011;27385;51.096;17.190;2023-10-08T01:06:12;2.60;;;0.20;;
41705;SDS011;27385;51.096;17.190;2023-10-08T01:08:46;1.70;;;0.20;;
41705;SDS011;27385;51.096;17.190;2023-10-08T01:11:21;1.80;;;0.30;;
41705;SDS011;27385;51.096;17.190;2023-10-08T01:14:01;1.00;;;0.10;;
41705;SDS011;27385;51.096;17.190;2023-10-08T01:16:35;1.20;;;0.20;;
41705;SDS011;27385;51.096;17.190;2023-10-08T01:19:07;1.10;;;0.20;;
41705;SDS011;27385;51.096;17.190;2023-10-08T01:21:41;2.00;;;0.20;;
41705;SDS011;27385;51.096;17.190;2023-10-08T01:24:12;2.40;;;0.10;;
41705;SDS011;27385;51.096;17.190;2023-10-08T01:26:45;1.30;;;0.10;;
41705;SDS011;27385;51.096;17.190;2023-10-08T01:29:16;1.40;;;0.20;;
41705;SDS011;27385;51.096;17.190;2023-10-08T01:31:49;0.60;;;0.20;;
41705;SDS011;27385;51.096;17.190;2023-10-08T01:34:21;1.50;;;0.10;;
41705;SDS011;27385;51.096;17.190;2023-10-08T01:36:56;0.70;;;0.10;;
41705;SDS011;27385;51.096;17.190;2023-10-08T01:39:32;1.10;;;0.20;;
41705;SDS011;27385;51.096;17.190;2023-10-08T01:42:03;1.50;;;0.20;;
41705;SDS011;27385;51.096;17.190;2023-10-08T01:44:43;1.50;;;0.20;;
41705;SDS011;27385;51.096;17.190;2023-10-08T01:47:15;2.80;;;0.30;;
41705;SDS011;27385;51.096;17.190;2023-10-08T01:49:47;1.00;;;0.20;;
41705;SDS011;27385;51.096;17.190;2023-10-08T01:52:21;2.40;;;0.40;;
41705;SDS011;27385;51.096;17.190;2023-10-08T01:54:52;1.60;;;0.20;;
41705;SDS011;27385;51.096;17.190;2023-10-08T01:57:23;4.70;;;0.60;;
41705;SDS011;27385;51.096;17.190;2023-10-08T01:59:54;5.20;;;0.50;;
41705;SDS011;27385;51.096;17.190;2023-10-08T02:02:25;10.10;;;0.60;;
41705;SDS011;27385;51.096;17.190;2023-10-08T02:04:56;4.90;;;0.40;;
41705;SDS011;27385;51.096;17.190;2023-10-08T02:07:27;5.60;;;0.40;;
41705;SDS011;27385;51.096;17.190;2023-10-08T02:09:58;4.30;;;0.60;;
41705;SDS011;27385;51.096;17.190;2023-10-08T02:12:29;4.40;;;0.50;;
41705;SDS011;27385;51.096;17.190;2023-10-08T02:15:00;5.80;;;0.30;;
41705;SDS011;27385;51.096;17.190;2023-10-08T02:17:32;7.40;;;1.00;;
41705;SDS011;27385;51.096;17.190;2023-10-08T02:20:03;1.70;;;0.30;;
41705;SDS011;27385;51.096;17.190;2023-10-08T02:22:36;3.00;;;0.40;;
41705;SDS011;27385;51.096;17.190;2023-10-08T02:25:07;4.20;;;0.70;;
41705;SDS011;27385;51.096;17.190;2023-10-08T02:27:39;4.00;;;0.30;;
41705;SDS011;27385;51.096;17.190;2023-10-08T02:30:11;3.10;;;0.30;;
41705;SDS011;27385;51.096;17.190;2023-10-08T02:32:42;2.00;;;0.30;;
41705;SDS011;27385;51.096;17.190;2023-10-08T02:35:14;3.40;;;0.30;;
41705;SDS011;27385;51.096;17.190;2023-10-08T02:37:45;3.80;;;0.40;;
41705;SDS011;27385;51.096;17.190;2023-10-08T02:40:16;8.00;;;0.70;;
41705;SDS011;27385;51.096;17.190;2023-10-08T02:42:54;3.30;;;0.40;;
41705;SDS011;27385;51.096;17.190;2023-10-08T02:45:26;3.80;;;0.40;;
41705;SDS011;27385;51.096;17.190;2023-10-08T02:47:57;4.20;;;0.40;;
41705;SDS011;27385;51.096;17.190;2023-10-08T02:50:28;9.70;;;0.60;;
41705;SDS011;27385;51.096;17.190;2023-10-08T02:53:00;4.80;;;0.40;;
41705;SDS011;27385;51.096;17.190;2023-10-08T02:55:38;7.80;;;0.60;;
41705;SDS011;27385;51.096;17.190;2023-10-08T02:58:12;4.70;;;0.40;;
41705;SDS011;27385;51.096;17.190;2023-10-08T03:00:43;4.40;;;1.00;;
41705;SDS011;27385;51.096;17.190;2023-10-08T03:03:16;3.60;;;0.50;;
41705;SDS011;27385;51.096;17.190;2023-10-08T03:05:47;2.20;;;0.40;;
41705;SDS011;27385;51.096;17.190;2023-10-08T03:08:19;2.90;;;0.40;;
41705;SDS011;27385;51.096;17.190;2023-10-08T03:10:51;6.00;;;0.50;;
41705;SDS011;27385;51.096;17.190;2023-10-08T03:13:23;7.80;;;0.30;;
41705;SDS011;27385;51.096;17.190;2023-10-08T03:15:55;4.90;;;0.30;;
41705;SDS011;27385;51.096;17.190;2023-10-08T03:18:36;2.20;;;0.40;;
41705;SDS011;27385;51.096;17.190;2023-10-08T03:21:10;6.60;;;0.30;;
41705;SDS011;27385;51.096;17.190;2023-10-08T03:24:10;2.70;;;0.20;;
41705;SDS011;27385;51.096;17.190;2023-10-08T03:27:01;1.70;;;0.30;;
41705;SDS011;27385;51.096;17.190;2023-10-08T03:29:40;3.50;;;0.30;;
41705;SDS011;27385;51.096;17.190;2023-10-08T03:32:12;4.10;;;0.30;;
41705;SDS011;27385;51.096;17.190;2023-10-08T03:34:45;2.40;;;0.30;;
41705;SDS011;27385;51.096;17.190;2023-10-08T03:37:17;4.00;;;0.40;;
41705;SDS011;27385;51.096;17.190;2023-10-08T03:39:57;3.80;;;0.20;;
41705;SDS011;27385;51.096;17.190;2023-10-08T03:42:49;3.60;;;0.30;;
41705;SDS011;27385;51.096;17.190;2023-10-08T03:45:23;3.10;;;0.30;;
41705;SDS011;27385;51.096;17.190;2023-10-08T03:48:12;3.70;;;0.50;;
41705;SDS011;27385;51.096;17.190;2023-10-08T03:50:43;2.20;;;0.30;;
41705;SDS011;27385;51.096;17.190;2023-10-08T03:53:24;6.60;;;0.50;;
41705;SDS011;27385;51.096;17.190;2023-10-08T03:55:58;2.50;;;0.30;;
41705;SDS011;27385;51.096;17.190;2023-10-08T03:58:33;3.30;;;0.40;;
41705;SDS011;27385;51.096;17.190;2023-10-08T04:01:09;3.30;;;0.40;;
41705;SDS011;27385;51.096;17.190;2023-10-08T04:03:46;2.90;;;0.40;;
41705;SDS011;27385;51.096;17.190;2023-10-08T04:06:27;2.40;;;0.30;;
41705;SDS011;27385;51.096;17.190;2023-10-08T04:09:06;3.30;;;0.40;;
41705;SDS011;27385;51.096;17.190;2023-10-08T04:11:51;5.60;;;0.50;;
41705;SDS011;27385;51.096;17.190;2023-10-08T04:14:24;3.60;;;0.70;;
41705;SDS011;27385;51.096;17.190;2023-10-08T04:16:56;8.30;;;0.80;;
41705;SDS011;27385;51.096;17.190;2023-10-08T04:19:27;4.60;;;0.70;;
41705;SDS011;27385;51.096;17.190;2023-10-08T04:21:59;3.50;;;0.50;;
41705;SDS011;27385;51.096;17.190;2023-10-08T04:24:31;7.80;;;0.80;;
41705;SDS011;27385;51.096;17.190;2023-10-08T04:27:03;7.00;;;0.60;;
41705;SDS011;27385;51.096;17.190;2023-10-08T04:29:37;7.90;;;0.60;;
41705;SDS011;27385;51.096;17.190;2023-10-08T04:32:10;3.00;;;0.40;;
41705;SDS011;27385;51.096;17.190;2023-10-08T04:34:49;4.90;;;0.50;;
41705;SDS011;27385;51.096;17.190;2023-10-08T04:37:24;3.20;;;0.40;;
41705;SDS011;27385;51.096;17.190;2023-10-08T04:40:00;3.20;;;0.40;;
41705;SDS011;27385;51.096;17.190;2023-10-08T04:42:33;3.40;;;0.30;;
41705;SDS011;27385;51.096;17.190;2023-10-08T04:45:06;4.30;;;0.30;;
41705;SDS011;27385;51.096;17.190;2023-10-08T04:47:41;3.90;;;0.50;;
41705;SDS011;27385;51.096;17.190;2023-10-08T04:50:11;4.50;;;1.20;;
41705;SDS011;27385;51.096;17.190;2023-10-08T04:52:45;6.10;;;0.40;;
41705;SDS011;27385;51.096;17.190;2023-10-08T04:57:57;3.30;;;0.30;;
41705;SDS011;27385;51.096;17.190;2023-10-08T05:00:32;3.40;;;0.60;;
41705;SDS011;27385;51.096;17.190;2023-10-08T05:03:18;3.60;;;0.40;;
41705;SDS011;27385;51.096;17.190;2023-10-08T05:05:51;3.70;;;0.50;;
41705;SDS011;27385;51.096;17.190;2023-10-08T05:08:35;8.60;;;0.50;;
41705;SDS011;27385;51.096;17.190;2023-10-08T05:11:23;5.90;;;0.50;;
41705;SDS011;27385;51.096;17.190;2023-10-08T05:14:15;5.80;;;0.60;;
41705;SDS011;27385;51.096;17.190;2023-10-08T05:16:56;8.20;;;0.90;;
41705;SDS011;27385;51.096;17.190;2023-10-08T05:19:31;5.00;;;0.60;;
41705;SDS011;27385;51.096;17.190;2023-10-08T05:22:24;4.60;;;0.80;;
41705;SDS011;27385;51.096;17.190;2023-10-08T05:25:12;8.30;;;0.90;;
41705;SDS011;27385;51.096;17.190;2023-10-08T05:28:03;6.40;;;1.00;;
41705;SDS011;27385;51.096;17.190;2023-10-08T05:30:39;4.10;;;0.60;;
41705;SDS011;27385;51.096;17.190;2023-10-08T05:33:21;7.30;;;0.90;;
41705;SDS011;27385;51.096;17.190;2023-10-08T05:36:12;7.90;;;1.30;;
41705;SDS011;27385;51.096;17.190;2023-10-08T05:38:55;6.00;;;0.80;;
41705;SDS011;27385;51.096;17.190;2023-10-08T05:41:29;6.90;;;0.80;;
41705;SDS011;27385;51.096;17.190;2023-10-08T05:44:19;6.00;;;0.80;;
41705;SDS011;27385;51.096;17.190;2023-10-08T05:47:06;8.30;;;0.80;;
41705;SDS011;27385;51.096;17.190;2023-10-08T05:52:39;4.80;;;0.80;;
41705;SDS011;27385;51.096;17.190;2023-10-08T05:55:18;6.20;;;1.70;;
41705;SDS011;27385;51.096;17.190;2023-10-08T05:57:54;7.70;;;0.90;;
41705;SDS011;27385;51.096;17.190;2023-10-08T06:00:41;5.20;;;0.90;;
41705;SDS011;27385;51.096;17.190;2023-10-08T06:03:33;7.70;;;0.90;;
41705;SDS011;27385;51.096;17.190;2023-10-08T06:06:05;6.70;;;1.20;;
41705;SDS011;27385;51.096;17.190;2023-10-08T06:09:04;5.90;;;1.40;;
41705;SDS011;27385;51.096;17.190;2023-10-08T06:11:49;6.50;;;1.40;;
41705;SDS011;27385;51.096;17.190;2023-10-08T06:14:37;10.30;;;1.60;;
41705;SDS011;27385;51.096;17.190;2023-10-08T06:17:25;14.00;;;1.80;;
41705;SDS011;27385;51.096;17.190;2023-10-08T06:20:10;10.20;;;1.70;;
41705;SDS011;27385;51.096;17.190;2023-10-08T06:22:44;13.40;;;2.10;;
41705;SDS011;27385;51.096;17.190;2023-10-08T06:25:15;13.70;;;2.40;;
41705;SDS011;27385;51.096;17.190;2023-10-08T06:27:51;10.30;;;2.50;;
41705;SDS011;27385;51.096;17.190;2023-10-08T06:30:23;10.00;;;2.40;;
41705;SDS011;27385;51.096;17.190;2023-10-08T06:32:57;11.60;;;2.20;;
41705;SDS011;27385;51.096;17.190;2023-10-08T06:35:28;16.90;;;2.40;;
41705;SDS011;27385;51.096;17.190;2023-10-08T06:38:00;10.50;;;2.10;;
41705;SDS011;27385;51.096;17.190;2023-10-08T06:40:35;15.40;;;3.20;;
41705;SDS011;27385;51.096;17.190;2023-10-08T06:43:12;11.90;;;2.60;;
41705;SDS011;27385;51.096;17.190;2023-10-08T06:45:49;14.80;;;2.60;;
41705;SDS011;27385;51.096;17.190;2023-10-08T06:48:25;10.40;;;3.00;;
41705;SDS011;27385;51.096;17.190;2023-10-08T06:50:57;9.90;;;2.20;;
41705;SDS011;27385;51.096;17.190;2023-10-08T06:53:35;10.80;;;2.80;;
41705;SDS011;27385;51.096;17.190;2023-10-08T06:56:06;12.40;;;2.70;;
41705;SDS011;27385;51.096;17.190;2023-10-08T06:58:40;10.00;;;2.70;;
41705;SDS011;27385;51.096;17.190;2023-10-08T07:01:15;10.40;;;2.00;;
41705;SDS011;27385;51.096;17.190;2023-10-08T07:03:49;11.30;;;2.30;;
41705;SDS011;27385;51.096;17.190;2023-10-08T07:06:24;10.50;;;1.80;;
41705;SDS011;27385;51.096;17.190;2023-10-08T07:08:59;11.10;;;2.20;;
41705;SDS011;27385;51.096;17.190;2023-10-08T07:11:33;7.50;;;1.80;;
41705;SDS011;27385;51.096;17.190;2023-10-08T07:14:07;9.40;;;1.60;;
41705;SDS011;27385;51.096;17.190;2023-10-08T07:16:38;10.30;;;1.70;;
41705;SDS011;27385;51.096;17.190;2023-10-08T07:19:10;7.90;;;1.70;;
41705;SDS011;27385;51.096;17.190;2023-10-08T07:21:47;7.40;;;1.70;;
41705;SDS011;27385;51.096;17.190;2023-10-08T07:24:22;3.60;;;1.00;;
41705;SDS011;27385;51.096;17.190;2023-10-08T07:26:53;6.90;;;1.20;;
41705;SDS011;27385;51.096;17.190;2023-10-08T07:29:25;8.20;;;1.40;;
41705;SDS011;27385;51.096;17.190;2023-10-08T07:31:56;9.90;;;1.30;;
41705;SDS011;27385;51.096;17.190;2023-10-08T07:34:37;8.50;;;1.50;;
41705;SDS011;27385;51.096;17.190;2023-10-08T07:37:09;5.30;;;1.00;;
41705;SDS011;27385;51.096;17.190;2023-10-08T07:39:41;6.10;;;1.10;;
41705;SDS011;27385;51.096;17.190;2023-10-08T07:42:18;7.90;;;1.20;;
41705;SDS011;27385;51.096;17.190;2023-10-08T07:44:49;11.20;;;0.90;;
41705;SDS011;27385;51.096;17.190;2023-10-08T07:47:22;8.00;;;1.20;;
41705;SDS011;27385;51.096;17.190;2023-10-08T07:49:55;6.50;;;0.90;;
41705;SDS011;27385;51.096;17.190;2023-10-08T07:52:26;8.70;;;1.00;;
41705;SDS011;27385;51.096;17.190;2023-10-08T07:54:58;6.80;;;0.70;;
41705;SDS011;27385;51.096;17.190;2023-10-08T07:57:33;6.60;;;0.70;;
41705;SDS011;27385;51.096;17.190;2023-10-08T08:00:05;2.60;;;0.50;;
41705;SDS011;27385;51.096;17.190;2023-10-08T08:02:46;5.50;;;0.60;;
41705;SDS011;27385;51.096;17.190;2023-10-08T08:05:20;2.40;;;0.30;;
41705;SDS011;27385;51.096;17.190;2023-10-08T08:07:51;2.70;;;0.50;;
41705;SDS011;27385;51.096;17.190;2023-10-08T08:10:24;3.50;;;0.40;;
41705;SDS011;27385;51.096;17.190;2023-10-08T08:12:55;4.90;;;0.50;;
41705;SDS011;27385;51.096;17.190;2023-10-08T08:15:26;3.90;;;0.70;;
41705;SDS011;27385;51.096;17.190;2023-10-08T08:18:22;3.50;;;0.60;;
41705;SDS011;27385;51.096;17.190;2023-10-08T08:21:08;3.80;;;0.50;;
41705;SDS011;27385;51.096;17.190;2023-10-08T08:23:43;2.70;;;0.40;;
41705;SDS011;27385;51.096;17.190;2023-10-08T08:26:16;8.00;;;0.60;;
41705;SDS011;27385;51.096;17.190;2023-10-08T08:28:58;6.00;;;0.60;;
41705;SDS011;27385;51.096;17.190;2023-10-08T08:31:29;3.00;;;0.60;;
41705;SDS011;27385;51.096;17.190;2023-10-08T08:34:03;5.60;;;0.70;;
41705;SDS011;27385;51.096;17.190;2023-10-08T08:36:41;5.50;;;0.70;;
41705;SDS011;27385;51.096;17.190;2023-10-08T08:39:16;4.30;;;0.60;;
41705;SDS011;27385;51.096;17.190;2023-10-08T08:42:00;5.10;;;0.60;;
41705;SDS011;27385;51.096;17.190;2023-10-08T08:44:33;3.90;;;0.50;;
41705;SDS011;27385;51.096;17.190;2023-10-08T08:47:13;4.80;;;0.30;;
41705;SDS011;27385;51.096;17.190;2023-10-08T08:49:45;2.90;;;0.20;;
41705;SDS011;27385;51.096;17.190;2023-10-08T08:52:18;4.50;;;0.50;;
41705;SDS011;27385;51.096;17.190;2023-10-08T08:54:50;3.70;;;0.20;;
41705;SDS011;27385;51.096;17.190;2023-10-08T08:57:21;1.60;;;0.20;;
41705;SDS011;27385;51.096;17.190;2023-10-08T08:59:53;2.30;;;0.30;;
41705;SDS011;27385;51.096;17.190;2023-10-08T09:02:27;7.30;;;0.40;;
41705;SDS011;27385;51.096;17.190;2023-10-08T09:05:00;2.00;;;0.30;;
41705;SDS011;27385;51.096;17.190;2023-10-08T09:07:52;2.70;;;0.40;;
41705;SDS011;27385;51.096;17.190;2023-10-08T09:10:25;4.20;;;0.40;;
41705;SDS011;27385;51.096;17.190;2023-10-08T09:12:57;5.30;;;0.30;;
41705;SDS011;27385;51.096;17.190;2023-10-08T09:15:28;3.90;;;0.20;;
41705;SDS011;27385;51.096;17.190;2023-10-08T09:18:01;4.20;;;0.20;;
41705;SDS011;27385;51.096;17.190;2023-10-08T09:20:33;5.20;;;0.40;;
41705;SDS011;27385;51.096;17.190;2023-10-08T09:23:11;3.80;;;0.40;;
41705;SDS011;27385;51.096;17.190;2023-10-08T09:25:45;3.10;;;0.30;;
41705;SDS011;27385;51.096;17.190;2023-10-08T09:28:18;3.50;;;0.30;;
41705;SDS011;27385;51.096;17.190;2023-10-08T09:30:53;4.10;;;0.50;;
41705;SDS011;27385;51.096;17.190;2023-10-08T09:33:26;1.90;;;0.20;;
41705;SDS011;27385;51.096;17.190;2023-10-08T09:35:59;2.80;;;0.20;;
41705;SDS011;27385;51.096;17.190;2023-10-08T09:38:33;2.70;;;0.20;;
41705;SDS011;27385;51.096;17.190;2023-10-08T09:41:32;1.80;;;0.30;;
41705;SDS011;27385;51.096;17.190;2023-10-08T09:44:31;3.30;;;0.20;;
41705;SDS011;27385;51.096;17.190;2023-10-08T09:47:03;1.80;;;0.20;;
41705;SDS011;27385;51.096;17.190;2023-10-08T09:49:38;1.30;;;0.10;;
41705;SDS011;27385;51.096;17.190;2023-10-08T09:52:10;3.40;;;0.20;;
41705;SDS011;27385;51.096;17.190;2023-10-08T09:54:48;1.30;;;0.20;;
41705;SDS011;27385;51.096;17.190;2023-10-08T09:57:24;1.60;;;0.20;;
41705;SDS011;27385;51.096;17.190;2023-10-08T09:59:55;3.50;;;0.30;;
41705;SDS011;27385;51.096;17.190;2023-10-08T10:02:26;1.20;;;0.20;;
41705;SDS011;27385;51.096;17.190;2023-10-08T10:04:59;6.00;;;0.40;;
41705;SDS011;27385;51.096;17.190;2023-10-08T10:07:30;1.70;;;0.20;;
41705;SDS011;27385;51.096;17.190;2023-10-08T10:10:02;1.30;;;0.20;;
41705;SDS011;27385;51.096;17.190;2023-10-08T10:12:54;3.00;;;0.30;;
41705;SDS011;27385;51.096;17.190;2023-10-08T10:15:28;1.90;;;0.20;;
41705;SDS011;27385;51.096;17.190;2023-10-08T10:18:09;1.70;;;0.20;;
41705;SDS011;27385;51.096;17.190;2023-10-08T10:29:21;1.80;;;0.30;;
41705;SDS011;27385;51.096;17.190;2023-10-08T10:31:54;2.50;;;0.10;;
41705;SDS011;27385;51.096;17.190;2023-10-08T10:34:26;0.80;;;0.10;;
41705;SDS011;27385;51.096;17.190;2023-10-08T10:37:03;1.70;;;0.10;;
41705;SDS011;27385;51.096;17.190;2023-10-08T10:39:38;3.00;;;0.50;;
41705;SDS011;27385;51.096;17.190;2023-10-08T10:42:10;2.40;;;0.30;;
41705;SDS011;27385;51.096;17.190;2023-10-08T10:44:49;0.70;;;0.10;;
41705;SDS011;27385;51.096;17.190;2023-10-08T10:47:21;2.20;;;0.10;;
41705;SDS011;27385;51.096;17.190;2023-10-08T10:49:55;1.80;;;0.20;;
41705;SDS011;27385;51.096;17.190;2023-10-08T10:52:54;1.00;;;0.20;;
41705;SDS011;27385;51.096;17.190;2023-10-08T10:55:25;2.10;;;0.20;;
41705;SDS011;27385;51.096;17.190;2023-10-08T10:58:00;1.50;;;0.30;;
41705;SDS011;27385;51.096;17.190;2023-10-08T11:00:41;0.60;;;0.10;;
41705;SDS011;27385;51.096;17.190;2023-10-08T11:03:27;2.20;;;0.20;;
41705;SDS011;27385;51.096;17.190;2023-10-08T11:06:02;2.00;;;0.20;;
41705;SDS011;27385;51.096;17.190;2023-10-08T11:08:43;3.50;;;0.20;;
41705;SDS011;27385;51.096;17.190;2023-10-08T11:11:15;1.50;;;0.20;;
41705;SDS011;27385;51.096;17.190;2023-10-08T11:13:48;2.50;;;0.20;;
41705;SDS011;27385;51.096;17.190;2023-10-08T11:16:22;1.70;;;0.10;;
41705;SDS011;27385;51.096;17.190;2023-10-08T11:18:54;1.40;;;0.20;;
41705;SDS011;27385;51.096;17.190;2023-10-08T11:21:29;3.00;;;0.20;;
41705;SDS011;27385;51.096;17.190;2023-10-08T11:24:02;0.90;;;0.20;;
41705;SDS011;27385;51.096;17.190;2023-10-08T11:26:37;1.10;;;0.10;;
41705;SDS011;27385;51.096;17.190;2023-10-08T11:29:29;1.50;;;0.10;;
41705;SDS011;27385;51.096;17.190;2023-10-08T11:32:01;0.70;;;0.10;;
41705;SDS011;27385;51.096;17.190;2023-10-08T11:34:35;1.60;;;0.20;;
41705;SDS011;27385;51.096;17.190;2023-10-08T11:37:07;0.80;;;0.10;;
41705;SDS011;27385;51.096;17.190;2023-10-08T11:39:48;2.80;;;0.10;;
41705;SDS011;27385;51.096;17.190;2023-10-08T11:42:21;1.50;;;0.30;;
41705;SDS011;27385;51.096;17.190;2023-10-08T11:45:09;0.80;;;0.10;;
41705;SDS011;27385;51.096;17.190;2023-10-08T11:47:47;3.90;;;0.20;;
41705;SDS011;27385;51.096;17.190;2023-10-08T11:50:26;1.80;;;0.20;;
41705;SDS011;27385;51.096;17.190;2023-10-08T11:53:02;2.00;;;0.10;;
41705;SDS011;27385;51.096;17.190;2023-10-08T11:55:35;2.50;;;0.30;;
41705;SDS011;27385;51.096;17.190;2023-10-08T11:58:07;1.90;;;0.30;;
41705;SDS011;27385;51.096;17.190;2023-10-08T12:00:45;2.10;;;0.30;;
41705;SDS011;27385;51.096;17.190;2023-10-08T12:03:20;1.70;;;0.10;;
41705;SDS011;27385;51.096;17.190;2023-10-08T12:05:54;1.50;;;0.30;;
41705;SDS011;27385;51.096;17.190;2023-10-08T12:08:27;1.70;;;0.10;;
41705;SDS011;27385;51.096;17.190;2023-10-08T12:10:58;0.90;;;0.10;;
41705;SDS011;27385;51.096;17.190;2023-10-08T12:13:29;2.40;;;0.10;;
41705;SDS011;27385;51.096;17.190;2023-10-08T12:16:01;1.80;;;0.20;;
41705;SDS011;27385;51.096;17.190;2023-10-08T12:18:40;2.00;;;0.20;;
41705;SDS011;27385;51.096;17.190;2023-10-08T12:21:11;2.60;;;0.20;;
41705;SDS011;27385;51.096;17.190;2023-10-08T12:23:43;4.50;;;0.10;;
41705;SDS011;27385;51.096;17.190;2023-10-08T12:26:17;2.40;;;0.30;;
41705;SDS011;27385;51.096;17.190;2023-10-08T12:28:48;1.80;;;0.20;;
41705;SDS011;27385;51.096;17.190;2023-10-08T12:31:21;2.90;;;0.20;;
41705;SDS011;27385;51.096;17.190;2023-10-08T12:33:52;2.30;;;0.20;;
41705;SDS011;27385;51.096;17.190;2023-10-08T12:36:30;2.30;;;0.20;;
41705;SDS011;27385;51.096;17.190;2023-10-08T12:39:05;2.10;;;0.10;;
41705;SDS011;27385;51.096;17.190;2023-10-08T12:41:43;1.60;;;0.30;;
41705;SDS011;27385;51.096;17.190;2023-10-08T12:44:23;0.80;;;0.10;;
41705;SDS011;27385;51.096;17.190;2023-10-08T12:47:05;2.70;;;0.30;;
41705;SDS011;27385;51.096;17.190;2023-10-08T12:49:37;1.10;;;0.30;;
41705;SDS011;27385;51.096;17.190;2023-10-08T12:52:10;1.60;;;0.20;;
41705;SDS011;27385;51.096;17.190;2023-10-08T12:54:43;1.70;;;0.20;;
41705;SDS011;27385;51.096;17.190;2023-10-08T12:57:17;1.90;;;0.20;;
41705;SDS011;27385;51.096;17.190;2023-10-08T12:59:57;2.80;;;0.20;;
41705;SDS011;27385;51.096;17.190;2023-10-08T13:02:31;3.00;;;0.20;;
41705;SDS011;27385;51.096;17.190;2023-10-08T13:05:09;1.30;;;0.20;;
41705;SDS011;27385;51.096;17.190;2023-10-08T13:07:43;3.70;;;0.20;;
41705;SDS011;27385;51.096;17.190;2023-10-08T13:10:15;2.40;;;0.20;;
41705;SDS011;27385;51.096;17.190;2023-10-08T13:12:46;1.30;;;0.20;;
41705;SDS011;27385;51.096;17.190;2023-10-08T13:15:18;3.20;;;0.30;;
41705;SDS011;27385;51.096;17.190;2023-10-08T13:17:55;2.90;;;0.30;;
41705;SDS011;27385;51.096;17.190;2023-10-08T13:20:27;1.30;;;0.20;;
41705;SDS011;27385;51.096;17.190;2023-10-08T13:23:01;2.40;;;0.20;;
41705;SDS011;27385;51.096;17.190;2023-10-08T13:25:33;0.80;;;0.10;;
41705;SDS011;27385;51.096;17.190;2023-10-08T13:28:07;1.70;;;0.10;;
41705;SDS011;27385;51.096;17.190;2023-10-08T13:30:39;1.60;;;0.30;;
41705;SDS011;27385;51.096;17.190;2023-10-08T13:33:10;1.10;;;0.20;;
41705;SDS011;27385;51.096;17.190;2023-10-08T13:35:42;1.30;;;0.10;;
41705;SDS011;27385;51.096;17.190;2023-10-08T13:38:12;1.20;;;0.10;;
41705;SDS011;27385;51.096;17.190;2023-10-08T13:40:44;2.00;;;0.30;;
41705;SDS011;27385;51.096;17.190;2023-10-08T13:43:35;2.20;;;0.10;;
41705;SDS011;27385;51.096;17.190;2023-10-08T13:46:07;1.20;;;0.20;;
41705;SDS011;27385;51.096;17.190;2023-10-08T13:48:41;1.30;;;0.10;;
41705;SDS011;27385;51.096;17.190;2023-10-08T13:51:16;3.80;;;0.20;;
41705;SDS011;27385;51.096;17.190;2023-10-08T13:53:53;0.70;;;0.10;;
41705;SDS011;27385;51.096;17.190;2023-10-08T13:56:28;2.50;;;0.10;;
41705;SDS011;27385;51.096;17.190;2023-10-08T13:58:59;0.70;;;0.10;;
41705;SDS011;27385;51.096;17.190;2023-10-08T14:01:40;1.20;;;0.20;;
41705;SDS011;27385;51.096;17.190;2023-10-08T14:04:14;1.20;;;0.20;;
41705;SDS011;27385;51.096;17.190;2023-10-08T14:06:47;2.20;;;0.30;;
41705;SDS011;27385;51.096;17.190;2023-10-08T14:09:19;0.90;;;0.20;;
41705;SDS011;27385;51.096;17.190;2023-10-08T14:11:59;1.90;;;0.20;;
41705;SDS011;27385;51.096;17.190;2023-10-08T14:14:30;3.30;;;0.30;;
41705;SDS011;27385;51.096;17.190;2023-10-08T14:17:02;1.50;;;0.20;;
41705;SDS011;27385;51.096;17.190;2023-10-08T14:19:34;0.70;;;0.20;;
41705;SDS011;27385;51.096;17.190;2023-10-08T14:22:14;1.60;;;0.20;;
41705;SDS011;27385;51.096;17.190;2023-10-08T14:24:47;1.10;;;0.20;;
41705;SDS011;27385;51.096;17.190;2023-10-08T14:27:26;3.40;;;0.40;;
41705;SDS011;27385;51.096;17.190;2023-10-08T14:30:00;3.90;;;0.50;;
41705;SDS011;27385;51.096;17.190;2023-10-08T14:32:33;6.20;;;0.30;;
41705;SDS011;27385;51.096;17.190;2023-10-08T14:35:05;1.40;;;0.20;;
41705;SDS011;27385;51.096;17.190;2023-10-08T14:37:55;1.50;;;0.10;;
41705;SDS011;27385;51.096;17.190;2023-10-08T14:40:43;1.30;;;0.30;;
41705;SDS011;27385;51.096;17.190;2023-10-08T14:43:32;2.60;;;0.30;;
41705;SDS011;27385;51.096;17.190;2023-10-08T14:46:05;1.90;;;0.10;;
41705;SDS011;27385;51.096;17.190;2023-10-08T14:48:37;2.80;;;0.30;;
41705;SDS011;27385;51.096;17.190;2023-10-08T14:51:08;1.60;;;0.10;;
41705;SDS011;27385;51.096;17.190;2023-10-08T14:53:49;1.50;;;0.10;;
41705;SDS011;27385;51.096;17.190;2023-10-08T14:56:20;1.40;;;0.20;;
41705;SDS011;27385;51.096;17.190;2023-10-08T14:58:51;2.40;;;0.20;;
41705;SDS011;27385;51.096;17.190;2023-10-08T15:01:23;0.90;;;0.20;;
41705;SDS011;27385;51.096;17.190;2023-10-08T15:03:54;1.20;;;0.30;;
41705;SDS011;27385;51.096;17.190;2023-10-08T15:06:25;2.70;;;0.20;;
41705;SDS011;27385;51.096;17.190;2023-10-08T15:08:58;1.80;;;0.30;;
41705;SDS011;27385;51.096;17.190;2023-10-08T15:11:29;0.90;;;0.10;;
41705;SDS011;27385;51.096;17.190;2023-10-08T15:14:00;1.70;;;0.20;;
41705;SDS011;27385;51.096;17.190;2023-10-08T15:16:37;1.20;;;0.20;;
41705;SDS011;27385;51.096;17.190;2023-10-08T15:19:09;2.30;;;0.30;;
41705;SDS011;27385;51.096;17.190;2023-10-08T15:21:43;0.90;;;0.10;;
41705;SDS011;27385;51.096;17.190;2023-10-08T15:24:18;1.70;;;0.20;;
41705;SDS011;27385;51.096;17.190;2023-10-08T15:26:51;1.80;;;0.20;;
41705;SDS011;27385;51.096;17.190;2023-10-08T15:29:23;4.20;;;0.30;;
41705;SDS011;27385;51.096;17.190;2023-10-08T15:31:54;3.20;;;0.30;;
41705;SDS011;27385;51.096;17.190;2023-10-08T15:34:26;0.80;;;0.10;;
41705;SDS011;27385;51.096;17.190;2023-10-08T15:36:57;5.40;;;0.40;;